Time;durP1;ratioP1;P1;durP2;ratioP2;P2;SDS_P1;SDS_P2;PMS_P1;PMS_P2;Temp;Humidity;BMP_temperature;BMP_pressure;BME280_temperature;BME280_humidity;BME280_pressure;Samples;Min_cycle;Max_cycle;Signal;HPM_P1;HPM_P2
2024/04/07 00:00:51;;;;;;;6.17;2.60;;;18.00;51.70;;;;;;5055267;28;20221;-55
2024/04/07 00:03:18;;;;;;;5.33;2.60;;;17.90;51.70;;;;;;5047138;28;20210;-55
2024/04/07 00:05:44;;;;;;;2.53;2.10;;;17.90;51.70;;;;;;5051980;28;20216;-55
2024/04/07 00:08:10;;;;;;;3.63;2.10;;;17.90;51.80;;;;;;5054773;28;20197;-55
2024/04/07 00:10:37;;;;;;;3.83;2.20;;;18.00;51.80;;;;;;5041445;28;20607;-55
2024/04/07 00:13:04;;;;;;;3.33;2.20;;;18.00;51.80;;;;;;5041792;28;20781;-55
2024/04/07 00:15:31;;;;;;;4.27;2.50;;;18.00;51.90;;;;;;5046957;28;20204;-55
2024/04/07 00:17:58;;;;;;;4.97;2.30;;;18.00;51.90;;;;;;5054202;28;20209;-55
2024/04/07 00:20:24;;;;;;;4.37;2.30;;;17.90;51.80;;;;;;5050589;28;20251;-55
2024/04/07 00:22:50;;;;;;;3.73;2.40;;;18.00;51.80;;;;;;5054275;28;20208;-55
2024/04/07 00:25:16;;;;;;;4.40;2.27;;;17.90;51.80;;;;;;5042324;28;20202;-55
2024/04/07 00:27:43;;;;;;;3.93;2.17;;;17.90;51.90;;;;;;5054391;28;20216;-55
2024/04/07 00:30:10;;;;;;;3.70;2.33;;;17.90;51.90;;;;;;5051031;28;20234;-55
2024/04/07 00:32:38;;;;;;;3.07;2.10;;;17.90;52.00;;;;;;5043687;28;20201;-55
2024/04/07 00:35:05;;;;;;;3.73;2.10;;;17.90;51.90;;;;;;5048020;28;20289;-55
2024/04/07 00:37:32;;;;;;;3.40;2.17;;;17.90;52.00;;;;;;5054129;28;20194;-55
2024/04/07 00:39:58;;;;;;;4.60;2.10;;;17.90;52.00;;;;;;5049252;28;20202;-54
2024/04/07 00:42:25;;;;;;;4.93;1.97;;;17.90;52.00;;;;;;5050390;28;20209;-55
2024/04/07 00:44:51;;;;;;;2.53;1.77;;;17.90;52.00;;;;;;5054663;28;20209;-55
2024/04/07 00:47:18;;;;;;;4.20;2.10;;;17.90;52.10;;;;;;5053920;28;20198;-55
2024/04/07 00:49:46;;;;;;;3.13;2.13;;;17.90;52.10;;;;;;5047295;28;20209;-55
2024/04/07 00:52:13;;;;;;;3.67;2.30;;;17.90;52.20;;;;;;5053347;28;20225;-55
2024/04/07 00:54:41;;;;;;;2.57;1.90;;;17.90;52.20;;;;;;5047332;28;20209;-55
2024/04/07 00:57:10;;;;;;;4.13;2.47;;;17.90;52.20;;;;;;5047391;28;20677;-55
2024/04/07 00:59:36;;;;;;;3.67;2.13;;;17.80;52.10;;;;;;5053829;28;20216;-55
2024/04/07 01:02:02;;;;;;;4.27;2.10;;;17.90;52.20;;;;;;5046198;28;20610;-55
2024/04/07 01:04:28;;;;;;;3.17;2.20;;;17.80;52.20;;;;;;5040679;28;20212;-55
2024/04/07 01:06:56;;;;;;;2.80;1.80;;;17.80;52.20;;;;;;5053645;28;20213;-55
2024/04/07 01:09:25;;;;;;;2.57;2.13;;;17.80;52.30;;;;;;5053550;28;20667;-55
2024/04/07 01:11:52;;;;;;;3.43;2.27;;;17.90;52.40;;;;;;5046714;28;20233;-55
2024/04/07 01:14:18;;;;;;;5.03;1.93;;;17.80;52.30;;;;;;5053625;28;20654;-55
2024/04/07 01:16:44;;;;;;;5.10;2.00;;;17.80;52.30;;;;;;5053579;28;20206;-55
2024/04/07 01:19:10;;;;;;;4.20;2.23;;;17.80;52.40;;;;;;5044369;28;20224;-55
2024/04/07 01:21:37;;;;;;;3.90;1.80;;;17.80;52.50;;;;;;5052658;28;20218;-55
2024/04/07 01:24:05;;;;;;;2.40;2.00;;;17.80;52.50;;;;;;5047072;28;20202;-55
2024/04/07 01:26:31;;;;;;;1.97;1.80;;;17.80;52.50;;;;;;5045596;28;20209;-55
2024/04/07 01:28:57;;;;;;;3.13;2.13;;;17.80;52.50;;;;;;5052993;28;20659;-55
2024/04/07 01:31:25;;;;;;;2.67;2.10;;;17.80;52.60;;;;;;5052698;28;20232;-55
2024/04/07 01:33:53;;;;;;;2.60;2.10;;;17.80;52.50;;;;;;5050939;28;20202;-55
2024/04/07 01:36:19;;;;;;;4.07;2.13;;;17.80;52.60;;;;;;5053652;28;20222;-55
2024/04/07 01:38:45;;;;;;;3.17;1.90;;;17.80;52.60;;;;;;5047295;28;20205;-55
2024/04/07 01:41:13;;;;;;;2.23;1.87;;;17.80;52.60;;;;;;5041790;28;20853;-55
2024/04/07 01:43:39;;;;;;;3.47;1.90;;;17.80;52.70;;;;;;5045041;28;20205;-55
2024/04/07 01:46:06;;;;;;;2.67;2.07;;;17.80;52.70;;;;;;5048699;28;20201;-55
2024/04/07 01:48:32;;;;;;;2.63;2.00;;;17.80;52.80;;;;;;5052502;28;20201;-55
2024/04/07 01:50:58;;;;;;;2.10;1.70;;;17.70;52.80;;;;;;5042744;28;20248;-55
2024/04/07 01:53:24;;;;;;;3.27;2.13;;;17.70;52.80;;;;;;5041314;28;20202;-55
2024/04/07 01:55:52;;;;;;;3.43;2.03;;;17.70;52.80;;;;;;5038817;28;20200;-55
2024/04/07 01:58:20;;;;;;;3.10;2.00;;;17.70;52.80;;;;;;5052357;28;20566;-55
2024/04/07 02:00:46;;;;;;;3.27;1.80;;;17.70;52.90;;;;;;5053251;28;20217;-55
2024/04/07 02:03:12;;;;;;;4.80;2.50;;;17.70;52.90;;;;;;5044722;28;20210;-55
2024/04/07 02:05:39;;;;;;;2.47;1.93;;;17.70;52.90;;;;;;5036502;28;20738;-55
2024/04/07 02:08:05;;;;;;;3.07;2.30;;;17.70;52.90;;;;;;5048284;28;20234;-55
2024/04/07 02:10:32;;;;;;;2.73;2.10;;;17.70;52.90;;;;;;5043748;28;20234;-55
2024/04/07 02:12:58;;;;;;;2.57;2.00;;;17.70;53.00;;;;;;5051932;28;20206;-55
2024/04/07 02:15:26;;;;;;;2.20;1.77;;;17.70;53.00;;;;;;5052700;28;20247;-55
2024/04/07 02:17:52;;;;;;;4.03;2.20;;;17.70;53.00;;;;;;5047134;28;20209;-55
2024/04/07 02:20:20;;;;;;;2.33;1.93;;;17.70;53.10;;;;;;5030816;28;20217;-55
2024/04/07 02:22:45;;;;;;;2.27;1.90;;;17.70;53.00;;;;;;5051736;28;20210;-55
2024/04/07 02:25:12;;;;;;;2.43;1.70;;;17.70;53.10;;;;;;5041641;28;20207;-55
2024/04/07 02:27:38;;;;;;;3.30;1.97;;;17.70;53.00;;;;;;5050202;28;20693;-55
2024/04/07 02:30:05;;;;;;;2.30;2.03;;;17.70;53.10;;;;;;5046650;28;20199;-55
2024/04/07 02:32:33;;;;;;;3.17;2.10;;;17.70;53.00;;;;;;5050579;28;20202;-55
2024/04/07 02:34:59;;;;;;;2.67;1.87;;;17.70;53.10;;;;;;5037683;28;20343;-55
2024/04/07 02:37:26;;;;;;;3.17;1.67;;;17.70;53.10;;;;;;5034766;28;20233;-55
2024/04/07 02:39:53;;;;;;;2.90;2.00;;;17.60;53.00;;;;;;5034619;28;20225;-55
2024/04/07 02:42:18;;;;;;;3.60;2.00;;;17.60;53.00;;;;;;5041596;28;20193;-55
2024/04/07 02:50:26;;;;;;;2.00;1.70;;;17.60;53.00;;;;;;5034095;28;20356;-55
2024/04/07 02:52:53;;;;;;;1.80;1.60;;;17.60;53.10;;;;;;5032452;28;20652;-55
2024/04/07 02:55:19;;;;;;;2.70;1.60;;;17.60;53.10;;;;;;5028069;28;20199;-55
2024/04/07 02:57:45;;;;;;;2.83;2.13;;;17.60;53.10;;;;;;5050816;28;20204;-55
2024/04/07 03:00:13;;;;;;;2.33;1.77;;;17.60;53.10;;;;;;5050033;28;20221;-55
2024/04/07 03:02:43;;;;;;;1.77;1.67;;;17.60;53.10;;;;;;5051151;28;20216;-55
2024/04/07 03:05:09;;;;;;;3.30;2.00;;;17.60;53.20;;;;;;5047377;28;20210;-55
2024/04/07 03:07:36;;;;;;;3.10;2.03;;;17.60;53.10;;;;;;5049715;28;20633;-55
2024/04/07 03:10:02;;;;;;;2.17;1.70;;;17.60;53.20;;;;;;5035588;28;20206;-55
2024/04/07 03:12:29;;;;;;;2.33;1.90;;;17.50;53.20;;;;;;5048715;28;20308;-55
2024/04/07 03:14:55;;;;;;;3.73;1.60;;;17.50;53.30;;;;;;5051146;28;20209;-55
2024/04/07 03:17:22;;;;;;;2.73;1.80;;;17.50;53.30;;;;;;5051217;28;20198;-55
2024/04/07 03:19:49;;;;;;;2.77;1.57;;;17.50;53.30;;;;;;5047437;28;20206;-55
2024/04/07 03:22:16;;;;;;;4.50;1.80;;;17.50;53.40;;;;;;5050616;28;20658;-55
2024/04/07 03:24:42;;;;;;;2.40;1.70;;;17.50;53.30;;;;;;5045282;28;20219;-55
2024/04/07 03:27:08;;;;;;;2.10;1.90;;;17.50;53.30;;;;;;5041937;28;20194;-55
2024/04/07 03:29:34;;;;;;;1.83;1.63;;;17.50;53.30;;;;;;5051149;28;20666;-55
2024/04/07 03:32:01;;;;;;;2.60;1.80;;;17.50;53.20;;;;;;5050831;28;20225;-55
2024/04/07 03:34:27;;;;;;;2.77;1.90;;;17.50;53.20;;;;;;5051399;28;20198;-55
2024/04/07 03:36:55;;;;;;;2.20;1.77;;;17.50;53.30;;;;;;5035808;28;20569;-55
2024/04/07 03:39:21;;;;;;;1.60;1.50;;;17.50;53.20;;;;;;5045069;28;20210;-55
2024/04/07 03:41:48;;;;;;;2.37;1.70;;;17.50;53.30;;;;;;5045285;28;20229;-55
2024/04/07 03:44:14;;;;;;;2.70;1.87;;;17.50;53.30;;;;;;5051658;28;20209;-55
2024/04/07 03:46:41;;;;;;;1.73;1.63;;;17.50;53.30;;;;;;5051173;28;20233;-55
2024/04/07 03:49:08;;;;;;;2.70;2.13;;;17.50;53.30;;;;;;5037312;28;20210;-55
2024/04/07 03:51:35;;;;;;;2.37;1.73;;;17.50;53.40;;;;;;5047237;28;20225;-55
2024/04/07 03:54:03;;;;;;;2.80;1.70;;;17.50;53.40;;;;;;5045917;28;20206;-55
2024/04/07 03:56:29;;;;;;;1.97;1.50;;;17.50;53.40;;;;;;5038550;28;20210;-55
2024/04/07 03:58:56;;;;;;;2.10;1.83;;;17.50;53.40;;;;;;5050613;28;20213;-55
2024/04/07 04:01:23;;;;;;;1.97;1.70;;;17.50;53.40;;;;;;5050726;28;20214;-55
2024/04/07 04:03:48;;;;;;;2.97;2.10;;;17.40;53.40;;;;;;5048815;28;20598;-55
2024/04/07 04:06:15;;;;;;;2.70;1.80;;;17.40;53.40;;;;;;5041305;28;20198;-55
2024/04/07 04:08:41;;;;;;;2.13;1.57;;;17.40;53.30;;;;;;5048329;28;20201;-55
2024/04/07 04:11:10;;;;;;;2.20;1.80;;;17.40;53.40;;;;;;5038306;28;20638;-55
2024/04/07 04:13:37;;;;;;;2.13;1.70;;;17.40;53.30;;;;;;5051274;28;20633;-55
2024/04/07 04:16:03;;;;;;;2.57;1.70;;;17.40;53.40;;;;;;5051336;28;20206;-55
2024/04/07 04:18:30;;;;;;;2.10;1.67;;;17.40;53.30;;;;;;5048778;28;20204;-55
2024/04/07 04:20:56;;;;;;;2.80;1.73;;;17.40;53.30;;;;;;5039102;28;20237;-55
2024/04/07 04:23:22;;;;;;;2.17;1.60;;;17.40;53.30;;;;;;5044905;28;20194;-55
2024/04/07 04:25:51;;;;;;;2.17;1.70;;;17.40;53.30;;;;;;5034177;28;20202;-55
2024/04/07 04:28:20;;;;;;;3.17;1.73;;;17.40;53.40;;;;;;5053713;28;20233;-55
2024/04/07 04:30:56;;;;;;;1.90;1.70;;;17.40;53.40;;;;;;5047030;28;20313;-55
2024/04/07 04:33:24;;;;;;;2.07;1.60;;;17.40;53.40;;;;;;5054664;28;20202;-55
2024/04/07 04:35:49;;;;;;;3.07;1.77;;;17.40;53.40;;;;;;5041926;28;20224;-55
2024/04/07 04:38:17;;;;;;;2.30;1.60;;;17.40;53.40;;;;;;5052852;28;20647;-55
2024/04/07 04:40:51;;;;;;;2.03;1.80;;;17.40;53.40;;;;;;5034435;28;20277;-55
2024/04/07 04:43:20;;;;;;;1.80;1.60;;;17.40;53.40;;;;;;5054788;28;20189;-55
2024/04/07 04:45:46;;;;;;;2.13;1.87;;;17.40;53.40;;;;;;5046445;28;20297;-55
2024/04/07 04:48:13;;;;;;;2.10;1.63;;;17.40;53.40;;;;;;5053828;28;20252;-55
2024/04/07 04:50:39;;;;;;;2.33;1.60;;;17.40;53.40;;;;;;5051483;28;20741;-55
2024/04/07 04:53:05;;;;;;;3.27;1.90;;;17.40;53.40;;;;;;5052836;28;20197;-55
2024/04/07 04:55:31;;;;;;;2.40;1.60;;;17.40;54.00;;;;;;5039656;28;20583;-55
2024/04/07 04:57:58;;;;;;;1.70;1.60;;;17.30;53.40;;;;;;5053490;28;20208;-55
2024/04/07 05:00:27;;;;;;;2.13;1.70;;;17.40;53.40;;;;;;5053343;28;20228;-55
2024/04/07 05:02:54;;;;;;;1.57;1.43;;;17.40;53.40;;;;;;5053936;28;20205;-55
2024/04/07 05:05:19;;;;;;;2.40;1.70;;;17.30;53.40;;;;;;5052000;28;20297;-55
2024/04/07 05:07:47;;;;;;;4.50;1.80;;;17.30;53.40;;;;;;5053630;28;20284;-55
2024/04/07 05:10:13;;;;;;;2.20;1.50;;;17.40;53.40;;;;;;5041707;28;20321;-54
2024/04/07 05:12:39;;;;;;;3.57;1.80;;;17.30;53.40;;;;;;5049082;28;20396;-54
2024/04/07 05:15:05;;;;;;;1.73;1.60;;;17.40;53.40;;;;;;5054010;28;20206;-54
2024/04/07 05:17:34;;;;;;;2.10;1.60;;;17.30;53.40;;;;;;5052943;28;20209;-54
2024/04/07 05:20:00;;;;;;;1.67;1.57;;;17.30;53.40;;;;;;5040366;28;20289;-54
2024/04/07 05:22:27;;;;;;;4.00;1.53;;;17.30;53.40;;;;;;5034084;28;20302;-54
2024/04/07 05:24:53;;;;;;;4.30;1.90;;;17.40;53.40;;;;;;5042995;28;20202;-54
2024/04/07 05:27:20;;;;;;;1.87;1.60;;;17.30;53.40;;;;;;5038011;28;20221;-54
2024/04/07 05:29:48;;;;;;;1.93;1.70;;;17.30;53.40;;;;;;5046773;28;20208;-54
2024/04/07 05:32:15;;;;;;;3.33;1.60;;;17.40;53.40;;;;;;5049791;28;20228;-54
2024/04/07 05:34:45;;;;;;;1.77;1.50;;;17.40;53.40;;;;;;5043896;28;20207;-54
2024/04/07 05:37:12;;;;;;;1.77;1.60;;;17.40;53.40;;;;;;5047436;28;20199;-54
2024/04/07 05:39:37;;;;;;;2.27;1.60;;;17.40;53.40;;;;;;5042564;28;20213;-54
2024/04/07 05:42:05;;;;;;;4.70;1.70;;;17.40;53.30;;;;;;5036444;28;20219;-54
2024/04/07 05:44:30;;;;;;;1.70;1.60;;;17.40;53.10;;;;;;5042012;28;20202;-54
2024/04/07 05:46:57;;;;;;;2.03;1.57;;;17.40;53.20;;;;;;5041700;28;20221;-54
2024/04/07 05:49:23;;;;;;;2.40;1.87;;;17.40;53.30;;;;;;5032534;28;20210;-54
2024/04/07 05:51:51;;;;;;;1.50;1.40;;;17.40;53.20;;;;;;5041375;28;20239;-54
2024/04/07 05:54:17;;;;;;;1.60;1.50;;;17.40;53.20;;;;;;5040294;28;20213;-54
2024/04/07 05:56:44;;;;;;;3.43;1.57;;;17.40;53.20;;;;;;5027098;28;20214;-53
2024/04/07 05:59:10;;;;;;;3.03;1.90;;;17.50;53.20;;;;;;5033717;28;20214;-54
2024/04/07 06:01:36;;;;;;;2.60;1.93;;;17.40;51.30;;;;;;5039972;28;20225;-54
2024/04/07 06:04:02;;;;;;;3.33;1.60;;;17.40;52.40;;;;;;5037808;28;20701;-55
2024/04/07 06:06:29;;;;;;;2.10;1.57;;;17.40;53.10;;;;;;5033353;28;20203;-55
2024/04/07 06:08:56;;;;;;;1.93;1.70;;;17.50;53.40;;;;;;5051839;28;20213;-55
2024/04/07 06:11:22;;;;;;;2.63;2.00;;;17.50;53.50;;;;;;5043690;28;20256;-55
2024/04/07 06:13:49;;;;;;;2.63;1.40;;;17.50;53.70;;;;;;5050781;28;20209;-55
2024/04/07 06:16:15;;;;;;;2.90;1.77;;;17.50;53.70;;;;;;5053040;28;20205;-55
2024/04/07 06:18:41;;;;;;;2.13;1.63;;;17.50;53.60;;;;;;5049427;28;20205;-55
2024/04/07 06:21:10;;;;;;;1.93;1.60;;;17.60;53.60;;;;;;5052465;28;20620;-55
2024/04/07 06:23:36;;;;;;;4.20;1.60;;;17.60;53.60;;;;;;5049078;28;20205;-55
2024/04/07 06:26:04;;;;;;;2.83;1.60;;;17.60;53.50;;;;;;5022579;28;20618;-56
2024/04/07 06:28:30;;;;;;;3.50;1.90;;;17.70;53.60;;;;;;5038936;28;20202;-55
2024/04/07 06:30:57;;;;;;;2.50;1.70;;;17.60;53.40;;;;;;5051354;28;20661;-55
2024/04/07 06:33:26;;;;;;;2.07;1.70;;;17.70;53.40;;;;;;5052618;28;20202;-54
2024/04/07 06:35:53;;;;;;;2.77;2.10;;;17.70;53.30;;;;;;5042677;28;20210;-54
2024/04/07 06:38:19;;;;;;;3.10;2.27;;;17.70;52.80;;;;;;5051734;28;20231;-54
2024/04/07 06:40:45;;;;;;;2.67;2.43;;;17.70;52.60;;;;;;5030192;28;20878;-55
2024/04/07 06:43:13;;;;;;;3.00;2.53;;;17.70;52.70;;;;;;5052017;28;20201;-55
2024/04/07 06:45:39;;;;;;;2.50;2.30;;;17.70;52.80;;;;;;5039873;28;20217;-55
2024/04/07 06:48:05;;;;;;;3.87;2.70;;;17.70;53.20;;;;;;5037909;28;20210;-55
2024/04/07 06:50:33;;;;;;;3.30;2.57;;;17.70;52.70;;;;;;5034539;28;20230;-54
2024/04/07 06:52:58;;;;;;;2.50;2.10;;;17.70;53.10;;;;;;5045237;28;20229;-55
2024/04/07 06:55:25;;;;;;;3.00;2.00;;;17.70;53.60;;;;;;5037256;28;20201;-55
2024/04/07 06:57:51;;;;;;;2.47;2.20;;;17.80;53.50;;;;;;5035681;28;20221;-55
2024/04/07 07:00:19;;;;;;;5.27;2.20;;;17.80;52.60;;;;;;5043649;28;20236;-54
2024/04/07 07:02:45;;;;;;;3.80;2.43;;;17.80;52.70;;;;;;5039514;28;20206;-55
2024/04/07 07:05:12;;;;;;;3.67;2.60;;;17.80;53.00;;;;;;5033754;28;20289;-54
2024/04/07 07:07:38;;;;;;;3.90;2.30;;;17.80;53.20;;;;;;5026065;28;20222;-54
2024/04/07 07:10:05;;;;;;;4.40;2.30;;;17.90;53.40;;;;;;5032443;28;20566;-54
2024/04/07 07:12:31;;;;;;;3.17;2.50;;;17.90;53.20;;;;;;5038084;28;20222;-54
2024/04/07 07:14:58;;;;;;;3.20;2.40;;;17.90;53.10;;;;;;5033893;28;20687;-54
2024/04/07 07:17:25;;;;;;;3.03;2.40;;;17.90;53.00;;;;;;5039362;28;20213;-54
2024/04/07 07:19:51;;;;;;;3.80;2.13;;;17.90;52.90;;;;;;5030293;28;20245;-54
2024/04/07 07:22:17;;;;;;;2.57;2.37;;;17.90;52.60;;;;;;5040953;28;20201;-54
2024/04/07 07:24:44;;;;;;;3.40;2.40;;;17.90;52.00;;;;;;5038769;28;20574;-54
2024/04/07 07:27:10;;;;;;;2.63;2.30;;;17.90;52.00;;;;;;5032713;28;20216;-55
2024/04/07 07:29:37;;;;;;;3.93;2.37;;;17.90;51.90;;;;;;5032232;28;20202;-55
2024/04/07 07:32:03;;;;;;;2.60;2.40;;;17.90;52.10;;;;;;5034301;28;20217;-55
2024/04/07 07:34:32;;;;;;;3.20;2.57;;;17.90;52.20;;;;;;5030313;28;20666;-55
2024/04/07 07:36:58;;;;;;;2.73;2.53;;;17.90;52.20;;;;;;5033595;28;20277;-55
2024/04/07 07:39:25;;;;;;;3.63;2.80;;;18.00;52.00;;;;;;5027993;28;20679;-54
2024/04/07 07:41:51;;;;;;;3.30;2.57;;;18.00;52.00;;;;;;5031277;28;20690;-54
2024/04/07 07:44:17;;;;;;;4.73;3.03;;;18.00;52.80;;;;;;5036830;28;20204;-55
2024/04/07 07:46:43;;;;;;;3.57;3.10;;;18.00;52.10;;;;;;5042686;28;20554;-55
2024/04/07 07:49:10;;;;;;;8.43;3.40;;;18.00;51.80;;;;;;5040416;28;20214;-55
2024/04/07 07:51:37;;;;;;;5.83;3.30;;;18.00;51.80;;;;;;5037902;28;20288;-57
2024/04/07 07:54:04;;;;;;;9.03;3.53;;;18.00;51.90;;;;;;5048305;28;20226;-55
2024/04/07 07:56:30;;;;;;;5.50;3.33;;;17.90;51.70;;;;;;5026590;28;20213;-54
2024/04/07 07:58:56;;;;;;;10.80;3.33;;;17.90;51.70;;;;;;5042986;28;20206;-55
2024/04/07 08:01:22;;;;;;;4.50;3.20;;;17.90;52.20;;;;;;5054832;28;20587;-55
2024/04/07 08:03:49;;;;;;;4.40;3.40;;;18.00;52.00;;;;;;5048438;28;20209;-55
2024/04/07 08:06:15;;;;;;;14.33;3.47;;;18.00;52.10;;;;;;5051020;28;20209;-54
2024/04/07 08:08:43;;;;;;;6.90;3.20;;;18.00;52.20;;;;;;5048688;28;20788;-54
2024/04/07 08:11:09;;;;;;;3.50;3.20;;;18.00;52.30;;;;;;5039943;28;20243;-54
2024/04/07 08:13:35;;;;;;;4.13;3.00;;;18.10;52.20;;;;;;5055162;28;20301;-54
2024/04/07 08:16:02;;;;;;;4.70;3.10;;;18.20;52.00;;;;;;5049402;28;20217;-55
2024/04/07 08:18:30;;;;;;;6.93;3.20;;;18.20;52.00;;;;;;5049803;28;20213;-55
2024/04/07 08:20:57;;;;;;;16.00;3.83;;;18.20;52.00;;;;;;5047104;28;20254;-54
2024/04/07 08:23:23;;;;;;;8.53;3.27;;;18.30;52.10;;;;;;5049639;28;20209;-55
2024/04/07 08:25:51;;;;;;;9.90;3.20;;;18.30;52.10;;;;;;5036238;28;20203;-54
2024/04/07 08:28:18;;;;;;;6.23;3.20;;;18.30;52.10;;;;;;5053249;28;20205;-56
2024/04/07 08:30:45;;;;;;;4.53;3.20;;;18.30;52.20;;;;;;5054660;28;20236;-56
2024/04/07 08:33:12;;;;;;;13.37;3.80;;;18.40;51.90;;;;;;5037225;28;20230;-55
2024/04/07 08:35:38;;;;;;;11.23;4.60;;;18.40;51.80;;;;;;5048754;28;20213;-54
2024/04/07 08:38:05;;;;;;;14.60;3.93;;;18.50;51.80;;;;;;5045342;28;20733;-55
2024/04/07 08:40:30;;;;;;;11.80;3.60;;;18.50;51.70;;;;;;5034229;28;20257;-56
2024/04/07 08:42:58;;;;;;;7.63;3.23;;;18.60;51.60;;;;;;5050393;28;20202;-55
2024/04/07 08:45:26;;;;;;;9.97;2.87;;;18.60;51.60;;;;;;5054409;28;20206;-55
2024/04/07 08:47:54;;;;;;;7.60;2.70;;;18.60;51.50;;;;;;5049397;28;20202;-56
2024/04/07 08:50:21;;;;;;;6.67;2.67;;;18.70;51.60;;;;;;5050018;28;20732;-56
2024/04/07 08:52:48;;;;;;;6.37;3.17;;;18.70;51.50;;;;;;5054457;28;20229;-54
2024/04/07 08:55:14;;;;;;;5.13;2.80;;;18.70;51.60;;;;;;5032385;28;20217;-55
2024/04/07 08:57:42;;;;;;;5.93;2.73;;;18.70;51.70;;;;;;5042164;28;20213;-54
2024/04/07 09:00:15;;;;;;;8.80;3.17;;;18.80;51.80;;;;;;5053467;28;20227;-56
2024/04/07 09:02:42;;;;;;;4.60;2.40;;;18.80;52.00;;;;;;5054089;28;20653;-56
2024/04/07 09:05:08;;;;;;;4.10;2.77;;;18.80;52.40;;;;;;5044992;28;20320;-56
2024/04/07 09:07:36;;;;;;;4.40;3.17;;;18.80;52.30;;;;;;5035131;28;20704;-55
2024/04/07 09:10:02;;;;;;;7.63;2.87;;;18.80;52.10;;;;;;5040388;28;20207;-55
2024/04/07 09:12:29;;;;;;;3.63;2.70;;;18.80;52.10;;;;;;5034713;28;20229;-55
2024/04/07 09:14:55;;;;;;;5.13;2.80;;;18.80;52.10;;;;;;5033865;28;20211;-56
2024/04/07 09:17:23;;;;;;;4.60;3.00;;;18.90;52.60;;;;;;5045069;28;20336;-56
2024/04/07 09:19:49;;;;;;;5.03;2.90;;;18.90;52.60;;;;;;5051730;28;20210;-56
2024/04/07 09:22:15;;;;;;;3.00;2.70;;;18.90;52.50;;;;;;5045595;28;20668;-56
2024/04/07 09:24:41;;;;;;;3.37;2.70;;;18.90;51.80;;;;;;5046670;28;20569;-56
2024/04/07 09:27:10;;;;;;;5.33;2.43;;;18.90;51.30;;;;;;5026482;28;20207;-56
2024/04/07 09:29:39;;;;;;;3.00;2.03;;;19.00;51.10;;;;;;5048144;28;20257;-56
2024/04/07 09:32:06;;;;;;;6.47;2.40;;;19.00;50.20;;;;;;5051780;28;20233;-56
2024/04/07 09:34:35;;;;;;;2.93;2.30;;;19.00;49.60;;;;;;5046440;28;20214;-57
2024/04/07 09:37:02;;;;;;;4.17;2.10;;;19.10;48.80;;;;;;5041098;28;20662;-56
2024/04/07 09:39:28;;;;;;;3.40;1.97;;;19.20;48.00;;;;;;5053164;28;20549;-56
2024/04/07 09:41:58;;;;;;;3.50;2.20;;;19.20;48.30;;;;;;5036461;28;20224;-56
2024/04/07 09:44:29;;;;;;;3.57;2.00;;;19.20;48.70;;;;;;5045551;28;20226;-56
2024/04/07 09:47:03;;;;;;;2.87;1.90;;;19.20;48.70;;;;;;5050769;28;20194;-57
2024/04/07 09:49:33;;;;;;;2.83;2.00;;;19.30;49.20;;;;;;5040134;28;20285;-57
2024/04/07 09:52:04;;;;;;;7.67;2.63;;;19.30;49.50;;;;;;5045616;28;20624;-60
2024/04/07 09:54:39;;;;;;;6.33;2.80;;;19.30;49.80;;;;;;5049127;28;20212;-58
2024/04/07 09:57:08;;;;;;;5.07;2.20;;;19.40;50.20;;;;;;5026936;28;20207;-58
2024/04/07 09:59:36;;;;;;;3.70;2.03;;;19.30;50.20;;;;;;5047221;28;20222;-58
2024/04/07 10:02:04;;;;;;;5.93;2.43;;;19.30;50.20;;;;;;5051956;28;20272;-57
2024/04/07 10:04:32;;;;;;;10.90;2.43;;;19.30;50.30;;;;;;5042160;28;20209;-58
2024/04/07 10:07:00;;;;;;;5.30;2.10;;;19.30;50.40;;;;;;5044620;28;20216;-58
2024/04/07 10:09:28;;;;;;;5.37;2.33;;;19.20;50.40;;;;;;5037407;28;20206;-58
2024/04/07 10:11:55;;;;;;;3.73;2.00;;;19.20;50.40;;;;;;5039788;28;20236;-57
2024/04/07 10:14:22;;;;;;;4.90;2.33;;;19.20;50.40;;;;;;5045694;28;20635;-57
2024/04/07 10:16:50;;;;;;;4.40;2.17;;;19.20;50.50;;;;;;5052676;28;20217;-57
2024/04/07 10:19:18;;;;;;;4.20;2.30;;;19.20;50.60;;;;;;5044954;28;20732;-57
2024/04/07 10:21:45;;;;;;;3.13;1.97;;;19.20;50.60;;;;;;5052938;28;20224;-57
2024/04/07 10:24:11;;;;;;;4.03;1.73;;;19.20;50.60;;;;;;5052347;28;20213;-58
2024/04/07 10:26:40;;;;;;;3.20;1.63;;;19.20;50.70;;;;;;5043146;28;20210;-58
2024/04/07 10:29:07;;;;;;;3.97;1.73;;;19.20;50.70;;;;;;5052414;28;20664;-58
2024/04/07 10:31:36;;;;;;;4.93;1.80;;;19.20;50.70;;;;;;5052890;28;20220;-58
2024/04/07 10:34:02;;;;;;;2.17;1.90;;;19.10;50.80;;;;;;5046303;28;20222;-58
2024/04/07 10:36:33;;;;;;;2.47;1.60;;;19.20;50.80;;;;;;5052779;28;20226;-58
2024/04/07 10:39:00;;;;;;;2.80;1.60;;;19.10;50.90;;;;;;5052123;28;20201;-58
2024/04/07 10:41:28;;;;;;;3.10;1.90;;;19.10;50.90;;;;;;5042115;28;20222;-58
2024/04/07 10:43:55;;;;;;;3.20;1.80;;;19.10;50.90;;;;;;5052526;28;20215;-58
2024/04/07 10:46:24;;;;;;;2.77;1.70;;;19.20;50.90;;;;;;5052312;28;20206;-58
2024/04/07 10:48:51;;;;;;;3.67;2.07;;;19.10;51.00;;;;;;5052006;28;20213;-58
2024/04/07 10:51:18;;;;;;;3.63;1.80;;;19.10;51.00;;;;;;5045140;28;20280;-58
2024/04/07 10:53:45;;;;;;;2.27;1.57;;;19.10;50.90;;;;;;5046949;28;20614;-58
2024/04/07 10:56:12;;;;;;;2.03;1.70;;;19.10;51.00;;;;;;5040170;28;20268;-58
2024/04/07 10:58:38;;;;;;;2.50;1.57;;;19.10;51.00;;;;;;5045475;28;20212;-58
2024/04/07 11:01:06;;;;;;;4.33;1.80;;;19.10;51.00;;;;;;5052312;28;20262;-58
2024/04/07 11:03:36;;;;;;;3.63;1.60;;;19.10;51.00;;;;;;5052223;28;20205;-58
2024/04/07 11:06:03;;;;;;;2.97;1.50;;;19.10;51.00;;;;;;5046425;28;20228;-58
2024/04/07 11:08:30;;;;;;;3.00;1.60;;;19.20;51.00;;;;;;5047272;28;20607;-58
2024/04/07 11:10:57;;;;;;;2.33;1.40;;;19.10;51.00;;;;;;5038635;28;20303;-58
2024/04/07 11:13:23;;;;;;;3.23;2.00;;;19.10;51.10;;;;;;5051756;28;20713;-57
2024/04/07 11:15:51;;;;;;;3.37;1.90;;;19.20;51.10;;;;;;5052034;28;20200;-57
2024/04/07 11:18:20;;;;;;;3.30;1.60;;;19.10;51.00;;;;;;5051408;28;20216;-58
2024/04/07 11:20:47;;;;;;;1.90;1.47;;;19.20;51.10;;;;;;5048679;28;20221;-58
2024/04/07 11:23:13;;;;;;;2.50;1.70;;;19.10;51.00;;;;;;5052050;28;20208;-57
2024/04/07 11:25:42;;;;;;;2.33;1.40;;;19.20;51.10;;;;;;5049202;28;20209;-57
2024/04/07 11:28:09;;;;;;;2.30;1.50;;;19.20;51.70;;;;;;5051166;28;20748;-57
2024/04/07 11:30:38;;;;;;;3.60;1.80;;;19.10;51.10;;;;;;5051870;28;20230;-57
2024/04/07 11:33:04;;;;;;;1.60;1.50;;;19.20;51.10;;;;;;5051894;28;20228;-58
2024/04/07 11:35:33;;;;;;;1.60;1.50;;;19.20;51.10;;;;;;5044675;28;20206;-57
2024/04/07 11:37:59;;;;;;;3.70;1.93;;;19.20;51.10;;;;;;5055403;28;20250;-58
2024/04/07 11:40:26;;;;;;;1.97;1.57;;;19.20;51.10;;;;;;5052791;28;20260;-57
2024/04/07 11:42:52;;;;;;;1.50;1.40;;;19.20;51.10;;;;;;5055975;28;20204;-57
2024/04/07 11:45:19;;;;;;;2.27;1.60;;;19.20;51.10;;;;;;5055897;28;20576;-57
2024/04/07 11:47:45;;;;;;;2.13;1.60;;;19.20;51.00;;;;;;5055375;28;20209;-57
2024/04/07 11:50:11;;;;;;;2.73;1.57;;;19.20;51.10;;;;;;5042030;28;20225;-57
2024/04/07 11:52:39;;;;;;;4.17;1.60;;;19.20;51.00;;;;;;5055573;28;20225;-57
2024/04/07 11:55:06;;;;;;;2.03;1.57;;;19.20;51.00;;;;;;5043702;28;20651;-57
2024/04/07 11:57:33;;;;;;;1.50;1.40;;;19.20;51.00;;;;;;5054615;28;20204;-57
2024/04/07 12:00:00;;;;;;;2.07;1.60;;;19.20;51.10;;;;;;5055411;28;20665;-57
2024/04/07 12:02:26;;;;;;;2.10;1.57;;;19.20;51.10;;;;;;5055500;28;20211;-58
2024/04/07 12:04:53;;;;;;;1.77;1.20;;;19.20;51.00;;;;;;5042189;28;20209;-57
2024/04/07 12:07:20;;;;;;;1.70;1.50;;;19.20;51.00;;;;;;5052800;28;20205;-57
2024/04/07 12:09:48;;;;;;;1.43;1.30;;;19.20;51.00;;;;;;5055639;28;20289;-57
2024/04/07 12:12:14;;;;;;;1.57;1.47;;;19.30;51.10;;;;;;5051719;28;20232;-57
2024/04/07 12:14:41;;;;;;;1.67;1.30;;;19.30;51.10;;;;;;5055561;28;20205;-58
2024/04/07 12:17:07;;;;;;;2.20;1.50;;;19.20;51.10;;;;;;5055005;28;20215;-57
2024/04/07 12:19:34;;;;;;;2.63;1.30;;;19.30;51.10;;;;;;5050666;28;20198;-57
2024/04/07 12:22:02;;;;;;;2.07;1.30;;;19.20;51.00;;;;;;5055278;28;20222;-57
2024/04/07 12:24:29;;;;;;;1.60;1.50;;;19.30;51.10;;;;;;5038451;28;20858;-57
2024/04/07 12:26:56;;;;;;;1.50;1.40;;;19.30;51.10;;;;;;5050629;28;20212;-57
2024/04/07 12:29:23;;;;;;;1.57;1.47;;;19.30;51.10;;;;;;5054917;28;20205;-58
2024/04/07 12:31:48;;;;;;;2.90;1.73;;;19.30;51.10;;;;;;5054979;28;20743;-57
2024/04/07 12:34:15;;;;;;;1.53;1.43;;;19.30;51.10;;;;;;5045159;28;20227;-57
2024/04/07 12:36:41;;;;;;;1.60;1.50;;;19.30;51.10;;;;;;5049736;28;20209;-58
2024/04/07 12:39:09;;;;;;;1.63;1.30;;;19.30;51.20;;;;;;5051222;28;20198;-58
2024/04/07 12:41:35;;;;;;;1.30;1.20;;;19.30;51.20;;;;;;5050174;28;20230;-57
2024/04/07 12:44:04;;;;;;;2.37;1.40;;;19.20;51.10;;;;;;5055033;28;20251;-57
2024/04/07 12:46:30;;;;;;;2.83;1.50;;;19.20;51.10;;;;;;5054252;28;20208;-57
2024/04/07 12:48:57;;;;;;;1.90;1.50;;;19.20;51.10;;;;;;5054137;28;20201;-58